Hyalite Weather Station

This weather station provides temperature, wind speed, gust or max wind speed, and wind direction at 9982ft near the summit of Flanders Mountain. This data can be used with temperature and precipitation data from the Shower Falls SNOTEL site. If the data has not been updated recently you can view it directly on datagarrison.com

Elevation
9982ft
Jump to table bottom
Date Time Temperature
deg F
RH, % Wind Speed Wind Gust Wind Direction
11/30/20 00:00 30.6 8 18 27 SW - 246
11/29/20 23:00 28.7 10 17 28 SW - 246
11/29/20 22:00 27.2 10 13 22 SW - 243
11/29/20 21:00 28.3 10 11 19 W - 253
11/29/20 20:00 26.2 12 11 18 W - 250
11/29/20 19:00 25.6 14 11 19 W - 253
11/29/20 18:00 25.8 14 10 19 W - 250
11/29/20 17:00 24.6 18 9 15 W - 251
11/29/20 16:00 26.6 18 12 18 W - 253
11/29/20 15:00 25.8 22 12 19 W - 254
11/29/20 14:00 25.7 18 9 15 W - 256
11/29/20 13:00 25.3 20 7 11 W - 251
11/29/20 12:00 24.6 16 7 12 W - 257
11/29/20 11:00 23.8 15 8 13 W - 263
11/29/20 10:00 22.7 15 9 15 W - 250
11/29/20 09:00 21.1 14 10 14 W - 256
11/29/20 08:00 21.1 13 10 14 W - 263
11/29/20 07:00 20.5 12 12 17 W - 274
11/29/20 06:00 20.2 12 13 18 W - 268
11/29/20 05:00 17.7 24 10 16 W - 264
11/29/20 04:00 16.2 38 12 17 W - 260
11/29/20 03:00 12.2 84 9 16 W - 253
11/29/20 02:00 11.5 91 8 12 W - 268
11/29/20 01:00 12.0 90 7 16 W - 279
11/29/20 00:00 12.4 89 9 14 W - 267
11/28/20 23:00 12.6 91 8 12 W - 265
11/28/20 22:00 12.5 85 9 14 NW - 299
11/28/20 21:00 14.0 73 11 18 W - 282
11/28/20 20:00 13.1 75 11 20 W - 279
11/28/20 19:00 16.9 55 12 23 W - 274
11/28/20 18:00 20.7 44 16 31 W - 267
11/28/20 17:00 21.7 32 14 24 W - 267
11/28/20 16:00 23.9 25 16 24 W - 256
11/28/20 15:00 25.8 20 15 27 W - 263
11/28/20 14:00 26.0 18 15 33 W - 261
11/28/20 13:00 26.5 19 15 27 W - 258
11/28/20 12:00 27.9 16 17 28 W - 256
11/28/20 11:00 28.4 13 16 32 W - 250
11/28/20 10:00 27.9 14 17 30 SW - 244
11/28/20 09:00 28.3 13 24 36 W - 254
11/28/20 08:00 29.4 13 22 32 W - 253
11/28/20 07:00 30.2 13 24 34 W - 256
11/28/20 06:00 31.6 12 25 37 W - 250
11/28/20 05:00 31.6 11 22 30 W - 253
11/28/20 04:00 32.6 11 19 31 W - 254
11/28/20 03:00 32.3 11 19 29 W - 256
11/28/20 02:00 34.1 9 17 27 W - 258
11/28/20 01:00 32.1 13 13 25 W - 250
11/28/20 00:00 31.0 15 13 20 W - 261
11/27/20 23:00 30.2 12 14 22 W - 267